Aeroporto :
LOGIN :

Iscrizione | Disclaimer

   EN    FR    IT 

 










Sommario :    VFR   VFR Marginale   IFR   IFR Intensivo   IFR Molto Intensivo
Visibilità : 
Base nubi : 
>= 8 km
>= 3000ft
5 / 8 km
1000 / 3000 ft
1500m / 5 km
500 / 1000 ft
800 / 1500m
200 / 500 ft
< 800m
< 200 ft
Simboli :   Temporali  Nebbia  Neve Forte  Precipitazioni Forti  Vento > 20 kt
SIGMETs :   Varie  Temporali  Ghiacco  Turbolenza  Onda orograficha  Ceneri Vulcaniche






- Altitudine del aeroporto : 257 ft
- Codice IATA : MAN


EGCC - Manchester

ULTIMO METAR :
  • 070150Z AUTO 19003KT 9999 SCT037 BKN043 12/10 Q1021

METARs OBSOLETI :
  • 070120Z AUTO 18003KT 9999 SCT020 12/11 Q1021
  • 070050Z AUTO 22004KT 9999 FEW020 BKN026 BKN032 12/10 Q1022 NOSIG
  • 070020Z AUTO 27004KT 9999 BKN027 OVC044 12/10 Q1022 NOSIG
  • 062350Z 27003KT 9999 -DZ BKN038 12/10 Q1022

TAF TAF EGCC
Valido dal 07 a 00 ore il 08 a 06 ore UTC


062257Z 0700/0806 25005KT 9999 SCT035
TEMPO 0710/0806 7000 RA
PROB30
TEMPO 0710/0718 3000 +RA BKN014
BECMG 0715/0718 13010KT
BECMG 0719/0722 BKN010
PROB40
TEMPO 0719/0806 3000 BR RADZ BKN006
ATIS : +44 161 499 2324



MetMap, La meteo Aeronautica in un colpo d'occhio ! - Copyright ORBIFLY Dicembre 2007 - Disclaimer

ORBIFLY MET'MAP TEAM :

Programmazione e sviluppo : Alexandra Zaïnal
Concezione : Baudouin d'Aumeries
Aiuto per la programmazione : Marc-Olivier Méhu
Supporto tecnico e logistico : Manuel Goepfert
Aiuto per la traduzione : Arnaldo La Scala

Contatto : metmap@orbifly.com




FONTI E CREDITI :

   NOAA